Covington, Iowa
Current Conditions -  °F | °C
As of 10:52 PM on Sunday 21 Dec 2014 (Local Time) from KCID Reporting Station
Haze Haze  
Wind Chill: 29°   Ceiling: 1400
Heat Index: 37°   Visibility: 5mi
Dew Point: 35°   Wind: 13mph
Humidity: 93%   Direction: 150°SSE
Pressure: 29.85"   Gusts: NA
Location:  42.0483°N, 91.7982°W
Report Text: KCID 220452Z 15011KT 5SM BR OVC014 03/02 A2985 RMK AO2 RAE0355 SLP113 P0000 T00280017 $
Loading
Personal Weather Stations






























Interactive Weather Map New forecast layout! Learn more

10-Day Weather Forecast

Advertisements
Track Severe Weather on mobile